Time;durP1;ratioP1;P1;durP2;ratioP2;P2;SDS_P1;SDS_P2;PMS_P1;PMS_P2;Temp;Humidity;BMP_temperature;BMP_pressure;BME280_temperature;BME280_humidity;BME280_pressure;Samples;Min_cycle;Max_cycle;Signal;HPM_P1;HPM_P2
2023/08/30 00:00:10;;;;;;;;;5.00;5.00;;;;;23.85;96.26;100452.84;2103856;28;45445;-53
2023/08/30 00:01:11;;;;;;;;;4.00;4.00;;;;;23.85;96.50;100443.84;2103603;28;46493;-54
2023/08/30 00:02:11;;;;;;;;;7.00;6.67;;;;;23.85;96.36;100449.25;2103216;28;47031;-53
2023/08/30 00:03:12;;;;;;;;;5.00;5.00;;;;;23.84;96.12;100445.69;2103717;28;45933;-54
2023/08/30 00:04:12;;;;;;;;;6.33;6.33;;;;;23.83;96.19;100443.97;2103305;28;46257;-54
2023/08/30 00:05:13;;;;;;;;;7.67;7.67;;;;;23.89;96.16;100442.63;2103643;28;46331;-54
2023/08/30 00:06:13;;;;;;;;;8.00;8.00;;;;;23.89;95.33;100437.22;2103902;28;46799;-52
2023/08/30 00:07:13;;;;;;;;;6.67;5.67;;;;;23.88;95.41;100449.88;2103004;28;46481;-52
2023/08/30 00:08:18;;;;;;;;;7.33;6.33;;;;;23.88;95.58;100443.59;2109423;27;45856;-54
2023/08/30 00:09:18;;;;;;;;;7.50;6.00;;;;;23.87;95.45;100431.03;2112094;27;46445;-54
2023/08/30 00:10:18;;;;;;;;;7.67;7.00;;;;;23.86;94.99;100443.72;2103723;27;46105;-52
2023/08/30 00:11:19;;;;;;;;;5.67;5.67;;;;;23.86;95.49;100440.16;2095589;28;45468;-51
2023/08/30 00:12:19;;;;;;;;;6.00;6.00;;;;;23.84;95.26;100442.13;2095095;28;45984;-53
2023/08/30 00:13:19;;;;;;;;;9.33;9.33;;;;;23.83;95.21;100440.41;2103380;28;46844;-55
2023/08/30 00:14:20;;;;;;;;;6.67;5.00;;;;;23.82;95.45;100438.69;2103449;28;46350;-52
2023/08/30 00:15:20;;;;;;;;;6.33;6.33;;;;;23.79;95.58;100442.50;2103150;28;46461;-55
2023/08/30 00:16:20;;;;;;;;;6.67;6.00;;;;;23.77;95.52;100437.22;2104205;28;46248;-54
2023/08/30 00:17:21;;;;;;;;;6.67;6.67;;;;;23.78;95.58;100436.22;2105060;27;46228;-55
2023/08/30 00:18:21;;;;;;;;;6.33;6.33;;;;;23.77;95.80;100439.06;2122119;27;44982;-53
2023/08/30 00:19:22;;;;;;;;;5.67;5.67;;;;;23.75;95.58;100441.00;2121244;27;46834;-55
2023/08/30 00:20:22;;;;;;;;;7.00;7.00;;;;;23.72;95.46;100431.28;2121729;27;46085;-53
2023/08/30 00:21:22;;;;;;;;;6.00;6.00;;;;;23.73;95.99;100437.56;2121764;27;46522;-54
2023/08/30 00:22:23;;;;;;;;;5.00;5.00;;;;;23.71;95.57;100434.13;2121770;27;46034;-55
2023/08/30 00:23:24;;;;;;;;;6.67;6.00;;;;;23.70;95.74;100430.56;2121769;27;45563;-53
2023/08/30 00:24:24;;;;;;;;;9.00;7.00;;;;;23.68;96.07;100424.41;2121841;27;46200;-52
2023/08/30 00:25:24;;;;;;;;;6.00;6.00;;;;;23.68;95.84;100424.41;2121424;27;46317;-52
2023/08/30 00:26:25;;;;;;;;;8.00;6.00;;;;;23.67;96.15;100428.09;2121552;27;46427;-52
2023/08/30 00:27:25;;;;;;;;;6.33;6.33;;;;;23.64;95.93;100420.22;2118148;27;46869;-54
2023/08/30 00:28:26;;;;;;;;;7.67;7.00;;;;;23.64;96.04;100422.09;2120090;27;45824;-51
2023/08/30 00:29:26;;;;;;;;;5.67;5.67;;;;;23.63;96.21;100420.31;2121226;27;46376;-54
2023/08/30 00:30:26;;;;;;;;;6.67;6.67;;;;;23.60;96.30;100420.59;2121917;27;46624;-53
2023/08/30 00:31:27;;;;;;;;;8.67;8.00;;;;;23.51;96.69;100419.47;2121480;27;46806;-55
2023/08/30 00:32:27;;;;;;;;;6.00;6.00;;;;;23.48;96.81;100417.84;2121306;27;46866;-52
2023/08/30 00:33:27;;;;;;;;;8.00;6.67;;;;;23.48;96.92;100416.97;2121535;27;46488;-54
2023/08/30 00:34:28;;;;;;;;;8.00;6.67;;;;;23.52;96.88;100412.19;2121625;27;45584;-51
2023/08/30 00:35:28;;;;;;;;;7.00;5.00;;;;;23.49;96.72;100411.44;2121580;27;45692;-53
2023/08/30 00:36:29;;;;;;;;;7.00;6.00;;;;;23.52;97.07;100414.91;2112549;27;45822;-53
2023/08/30 00:37:29;;;;;;;;;6.00;6.00;;;;;23.51;96.81;100419.47;2112968;27;46252;-53
2023/08/30 00:38:32;;;;;;;;;6.33;6.33;;;;;23.46;96.95;100406.28;2121674;27;46897;-53
2023/08/30 00:39:33;;;;;;;;;5.50;5.25;;;;;23.49;97.19;100410.56;2120805;27;46905;-54
2023/08/30 00:40:40;;;;;;;;;5.00;5.00;;;;;23.49;97.10;100408.72;2121994;27;46429;-55
2023/08/30 00:41:40;;;;;;;;;7.75;7.25;;;;;23.47;97.27;100408.00;2121327;27;46241;-54
2023/08/30 00:42:40;;;;;;;;;8.00;8.00;;;;;23.45;97.07;100409.97;2121400;27;45401;-55
2023/08/30 00:43:41;;;;;;;;;14.33;12.67;;;;;23.43;97.26;100409.22;2120568;27;46190;-53
2023/08/30 00:44:41;;;;;;;;;12.67;12.67;;;;;23.47;97.50;100409.84;2122684;27;45100;-54
2023/08/30 00:45:42;;;;;;;;;13.00;13.00;;;;;23.43;97.39;100411.09;2121233;27;46450;-53
2023/08/30 00:46:42;;;;;;;;;9.33;9.33;;;;;23.41;97.46;100405.78;2121804;27;46479;-55
2023/08/30 00:47:43;;;;;;;;;8.00;8.00;;;;;23.40;97.46;100408.63;2103475;28;46699;-54
2023/08/30 00:48:44;;;;;;;;;6.33;6.33;;;;;23.40;97.52;100405.91;2103122;28;46592;-54
2023/08/30 00:49:44;;;;;;;;;8.00;8.00;;;;;23.38;97.86;100402.47;2121464;27;46446;-51
2023/08/30 00:50:45;;;;;;;;;9.00;9.00;;;;;23.37;97.92;100404.28;2117428;27;46657;-54
2023/08/30 00:51:45;;;;;;;;;5.67;5.67;;;;;23.38;97.86;100400.63;2115942;27;46324;-53
2023/08/30 00:52:46;;;;;;;;;5.00;3.00;;;;;23.37;97.48;100401.59;2121545;27;46147;-55
2023/08/30 00:53:48;;;;;;;;;6.33;6.33;;;;;23.40;97.68;100403.22;2121771;27;45163;-54
2023/08/30 00:54:48;;;;;;;;;6.50;6.00;;;;;23.36;97.52;100390.88;2121113;27;46028;-51
2023/08/30 00:55:49;;;;;;;;;8.33;7.00;;;;;23.42;97.67;100387.69;2121900;27;45588;-54
2023/08/30 00:56:50;;;;;;;;;6.33;6.33;;;;;23.40;97.56;100393.25;2121677;27;45762;-54
2023/08/30 00:57:50;;;;;;;;;5.25;5.25;;;;;23.42;97.53;100395.81;2121989;27;46807;-54
2023/08/30 00:58:51;;;;;;;;;5.00;5.00;;;;;23.40;97.63;100393.25;2121759;27;45509;-56
2023/08/30 00:59:54;;;;;;;;;4.00;4.00;;;;;23.49;97.32;100391.63;2122839;27;46364;-55
2023/08/30 01:00:54;;;;;;;;;5.75;5.25;;;;;23.51;97.20;100392.38;2122747;27;46986;-55
2023/08/30 01:01:56;;;;;;;;;6.67;6.67;;;;;23.52;97.13;100388.69;2127347;27;46426;-55
2023/08/30 01:02:56;;;;;;;;;6.25;5.75;;;;;23.51;96.85;100391.53;2130095;27;46470;-53
2023/08/30 01:03:56;;;;;;;;;7.00;7.00;;;;;23.49;96.93;100389.75;2123117;27;45837;-51
2023/08/30 01:04:58;;;;;;;;;8.33;7.00;;;;;23.51;96.89;100392.38;2122760;27;46715;-55
2023/08/30 01:05:58;;;;;;;;;5.00;5.00;;;;;23.51;96.52;100386.09;2123056;27;45849;-55
2023/08/30 01:06:58;;;;;;;;;6.00;5.00;;;;;23.51;96.54;100383.41;2122766;27;46276;-55
2023/08/30 01:07:59;;;;;;;;;4.67;4.67;;;;;23.49;96.39;100381.63;2122588;27;45617;-53
2023/08/30 01:08:59;;;;;;;;;8.00;7.00;;;;;23.49;96.84;100381.63;2127988;27;46585;-54
2023/08/30 01:10:00;;;;;;;;;6.33;6.00;;;;;23.47;96.89;100380.91;2124842;27;47111;-52
2023/08/30 01:11:07;;;;;;;;;6.00;6.00;;;;;23.50;96.72;100382.50;2122855;27;45527;-52
2023/08/30 01:12:17;;;;;;;;;5.25;5.00;;;;;23.49;96.74;100381.63;2122875;27;46839;-53
2023/08/30 01:13:20;;;;;;;;;6.00;6.00;;;;;23.50;96.66;100377.09;2122385;27;47057;-51
2023/08/30 01:14:24;;;;;;;;;4.00;4.00;;;;;23.49;96.69;100378.94;2121471;27;46794;-53
2023/08/30 01:15:26;;;;;;;;;5.25;5.25;;;;;23.48;97.11;100377.22;2123125;27;46169;-53
2023/08/30 01:16:27;;;;;;;;;9.00;7.00;;;;;23.51;96.83;100375.28;2122660;27;46024;-52
2023/08/30 01:17:29;;;;;;;;;7.00;7.00;;;;;23.51;96.89;100375.28;2122671;27;46792;-53
2023/08/30 01:18:32;;;;;;;;;6.00;6.00;;;;;23.50;96.79;100371.66;2104955;27;46626;-51
2023/08/30 01:19:54;;;;;;;;;6.00;6.00;;;;;23.50;96.74;100371.66;2104990;27;46474;-53
2023/08/30 01:20:56;;;;;;;;;6.50;5.75;;;;;23.48;96.56;100370.94;2122215;27;46400;-52
2023/08/30 01:22:05;;;;;;;;;4.75;4.75;;;;;23.48;96.79;100374.50;2114579;27;46910;-52
2023/08/30 01:23:13;;;;;;;;;5.25;4.50;;;;;23.48;96.77;100371.78;2119841;27;45835;-54
2023/08/30 01:24:45;;;;;;;;;4.25;4.00;;;;;23.47;96.81;100366.50;2122601;27;46644;-53
2023/08/30 01:25:57;;;;;;;;;5.00;4.75;;;;;23.48;96.54;100366.38;2088056;28;45699;-54
2023/08/30 01:27:09;;;;;;;;;3.00;3.00;;;;;23.48;96.40;100369.09;2086897;28;45798;-50
2023/08/30 01:28:10;;;;;;;;;5.25;5.25;;;;;23.36;96.91;100361.94;2087198;28;46734;-53
2023/08/30 01:29:12;;;;;;;;;5.00;5.00;;;;;23.32;97.45;100365.03;2087611;28;46550;-51
2023/08/30 01:30:15;;;;;;;;;7.75;6.50;;;;;23.35;97.42;100368.34;2088039;28;46356;-52
2023/08/30 01:31:16;;;;;;;;;4.00;4.00;;;;;23.45;96.98;100355.81;2086321;28;46169;-52
2023/08/30 01:32:17;;;;;;;;;5.20;5.20;;;;;23.47;96.59;100364.66;2087637;28;46381;-51
2023/08/30 01:33:18;;;;;;;;;5.00;5.00;;;;;23.50;96.45;100360.84;2087699;28;46494;-54
2023/08/30 01:34:19;;;;;;;;;5.00;5.00;;;;;23.49;96.35;100368.09;2088212;28;46203;-54
2023/08/30 01:35:21;;;;;;;;;3.50;3.50;;;;;23.50;96.24;100363.53;2079631;28;46424;-51
2023/08/30 01:36:22;;;;;;;;;5.25;4.00;;;;;23.43;96.10;100365.03;2078450;28;46578;-48
2023/08/30 01:37:25;;;;;;;;;4.33;4.33;;;;;23.49;96.23;100356.41;2071110;28;45892;-53
2023/08/30 01:38:30;;;;;;;;;4.00;4.00;;;;;23.51;96.06;100359.88;2072206;28;47352;-54
2023/08/30 01:39:32;;;;;;;;;5.75;3.50;;;;;23.49;95.76;100370.81;2087319;28;46596;-55
2023/08/30 01:40:38;;;;;;;;;5.75;5.75;;;;;23.49;95.96;100354.56;2087463;28;46564;-54
2023/08/30 01:41:39;;;;;;;;;3.50;3.50;;;;;23.49;95.93;100353.69;2088096;28;46581;-53
2023/08/30 01:42:41;;;;;;;;;4.00;3.75;;;;;23.49;96.09;100353.69;2087849;28;45623;-52
2023/08/30 01:43:42;;;;;;;;;3.50;3.50;;;;;23.47;95.96;100351.13;2090251;28;46535;-49
2023/08/30 01:44:44;;;;;;;;;4.25;3.75;;;;;23.41;96.26;100348.91;2088026;28;46695;-50
2023/08/30 01:45:45;;;;;;;;;5.00;5.00;;;;;23.36;96.57;100352.97;2087988;28;45460;-52
2023/08/30 01:46:47;;;;;;;;;4.33;4.33;;;;;23.36;96.73;100351.13;2086812;28;45839;-52
2023/08/30 01:47:48;;;;;;;;;3.75;3.00;;;;;23.38;96.85;100359.16;2087943;28;46761;-54
2023/08/30 01:48:49;;;;;;;;;4.75;3.75;;;;;23.41;97.04;100357.03;2087787;28;45848;-54
2023/08/30 01:49:50;;;;;;;;;4.75;4.75;;;;;23.43;96.34;100348.78;2087907;28;47786;-52
2023/08/30 01:50:51;;;;;;;;;3.00;3.00;;;;;23.38;96.61;100349.19;2083355;28;45648;-52
2023/08/30 01:51:52;;;;;;;;;3.00;3.00;;;;;23.40;96.51;100346.34;2082130;28;46037;-54
2023/08/30 01:52:53;;;;;;;;;3.75;3.25;;;;;23.42;96.86;100341.66;2087425;28;47028;-55
2023/08/30 01:53:54;;;;;;;;;2.25;2.25;;;;;23.42;96.64;100344.38;2085300;28;46024;-54
2023/08/30 01:54:54;;;;;;;;;5.00;5.00;;;;;23.41;96.39;100343.50;2087519;28;46431;-51
2023/08/30 01:55:54;;;;;;;;;3.00;3.00;;;;;23.42;96.55;100341.66;2080314;28;46955;-54
2023/08/30 01:56:55;;;;;;;;;3.33;3.33;;;;;23.38;96.40;100343.75;2083945;28;45616;-54
2023/08/30 01:57:55;;;;;;;;;4.00;4.00;;;;;23.40;96.51;100344.50;2088260;28;46582;-55
2023/08/30 01:58:55;;;;;;;;;3.00;3.00;;;;;23.39;96.50;100341.91;2087339;28;46331;-52
2023/08/30 01:59:56;;;;;;;;;4.00;4.00;;;;;23.39;96.46;100342.78;2087209;28;47019;-54
2023/08/30 02:00:57;;;;;;;;;4.00;4.00;;;;;23.39;96.55;100337.34;2087865;28;46215;-53
2023/08/30 02:01:57;;;;;;;;;5.00;5.00;;;;;23.36;96.52;100339.44;2079003;28;46432;-55
2023/08/30 02:02:58;;;;;;;;;4.00;4.00;;;;;23.40;96.43;100336.38;2079093;28;46394;-53
2023/08/30 02:04:00;;;;;;;;;3.33;2.33;;;;;23.41;96.21;100339.94;2121266;27;46122;-54
2023/08/30 02:05:01;;;;;;;;;3.25;3.25;;;;;23.41;96.26;100337.22;2118459;27;46232;-53
2023/08/30 02:06:13;;;;;;;;;3.33;3.33;;;;;23.42;96.31;100333.53;2113955;27;46711;-53
2023/08/30 02:07:20;;;;;;;;;5.75;5.00;;;;;23.39;96.14;100340.06;2114339;27;46089;-52
2023/08/30 02:08:26;;;;;;;;;6.00;5.50;;;;;23.42;96.09;100339.81;2121397;27;47177;-54
2023/08/30 02:09:39;;;;;;;;;4.50;4.50;;;;;23.40;96.24;100339.06;2114026;27;46974;-55
2023/08/30 02:10:55;;;;;;;;;3.50;3.50;;;;;23.42;96.03;100328.97;2120244;27;45997;-53
2023/08/30 02:12:00;;;;;;;;;3.25;3.25;;;;;23.44;95.91;100329.72;2120542;27;46469;-54
2023/08/30 02:13:03;;;;;;;;;4.00;4.00;;;;;23.44;95.73;100329.72;2121811;27;46291;-55
2023/08/30 02:14:10;;;;;;;;;3.50;2.50;;;;;23.39;95.83;100329.22;2122346;27;46774;-54
2023/08/30 02:15:13;;;;;;;;;4.25;4.25;;;;;23.39;95.89;100331.09;2120468;27;46525;-54
2023/08/30 02:16:16;;;;;;;;;2.75;2.75;;;;;23.38;96.18;100337.50;2122212;27;46969;-52
2023/08/30 02:17:18;;;;;;;;;4.00;4.00;;;;;23.36;96.18;100334.88;2113833;27;45874;-51
2023/08/30 02:18:19;;;;;;;;;4.25;4.25;;;;;23.36;96.21;100334.88;2095746;28;45748;-51
2023/08/30 02:19:20;;;;;;;;;3.00;3.00;;;;;23.44;96.50;100342.38;2103951;27;46373;-53
2023/08/30 02:20:21;;;;;;;;;3.25;3.25;;;;;23.49;95.39;100337.44;2114076;27;46529;-54
2023/08/30 02:21:22;;;;;;;;;4.25;4.25;;;;;23.54;95.15;100331.69;2109116;27;46581;-54
2023/08/30 02:22:22;;;;;;;;;3.33;3.33;;;;;23.53;95.05;100336.22;2104677;28;45719;-54
2023/08/30 02:23:26;;;;;;;;;4.33;4.33;;;;;23.53;94.55;100336.22;2113214;27;46486;-53
2023/08/30 02:24:26;;;;;;;;;4.50;3.00;;;;;23.53;94.95;100335.38;2113005;27;46269;-54
2023/08/30 02:25:27;;;;;;;;;3.33;3.33;;;;;23.52;94.69;100333.66;2113599;27;46420;-54
2023/08/30 02:26:27;;;;;;;;;4.00;3.67;;;;;23.52;94.62;100334.50;2123128;27;46015;-54
2023/08/30 02:27:27;;;;;;;;;4.33;4.33;;;;;23.49;94.64;100334.75;2122389;27;46440;-54
2023/08/30 02:28:27;;;;;;;;;3.00;3.00;;;;;23.50;94.58;100333.75;2119854;27;45654;-53
2023/08/30 02:29:28;;;;;;;;;4.33;4.33;;;;;23.50;94.56;100336.47;2122286;27;46106;-53
2023/08/30 02:30:29;;;;;;;;;2.00;2.00;;;;;23.49;94.52;100332.03;2122319;27;46296;-53
2023/08/30 02:31:29;;;;;;;;;4.00;4.00;;;;;23.48;94.58;100331.16;2122530;27;46390;-52
2023/08/30 02:32:30;;;;;;;;;3.67;3.67;;;;;23.49;94.63;100332.88;2122527;27;46607;-52
2023/08/30 02:33:30;;;;;;;;;4.00;4.00;;;;;23.48;94.53;100325.75;2122308;27;46308;-52
2023/08/30 02:34:30;;;;;;;;;2.67;2.67;;;;;23.49;94.42;100327.47;2122276;27;46140;-51
2023/08/30 02:35:30;;;;;;;;;2.33;2.33;;;;;23.51;94.46;100330.09;2122375;27;45233;-51
2023/08/30 02:36:31;;;;;;;;;3.33;3.33;;;;;23.51;94.20;100323.81;2113328;27;45971;-53
2023/08/30 02:37:31;;;;;;;;;7.67;5.67;;;;;23.49;94.54;100329.31;2113691;27;45968;-53
2023/08/30 02:38:31;;;;;;;;;2.67;2.67;;;;;23.48;94.35;100325.75;2122182;27;46098;-55
2023/08/30 02:39:32;;;;;;;;;4.00;4.00;;;;;23.49;94.20;100326.63;2122524;27;46130;-55
2023/08/30 02:40:32;;;;;;;;;3.00;3.00;;;;;23.49;94.36;100321.19;2122480;27;46476;-55
2023/08/30 02:41:34;;;;;;;;;3.67;3.67;;;;;23.49;94.43;100321.19;2113043;27;46242;-54
2023/08/30 02:42:34;;;;;;;;;5.25;4.25;;;;;23.48;94.30;100319.47;2113227;27;45916;-52
2023/08/30 02:43:34;;;;;;;;;3.00;3.00;;;;;23.46;94.33;100319.59;2122383;27;46199;-53
2023/08/30 02:44:34;;;;;;;;;3.67;3.67;;;;;23.44;94.44;100320.72;2122251;27;46364;-52
2023/08/30 02:45:35;;;;;;;;;2.67;2.67;;;;;23.34;94.74;100322.44;2122037;27;46247;-52
2023/08/30 02:46:37;;;;;;;;;4.33;4.33;;;;;23.31;95.21;100317.28;2122095;27;46042;-54
2023/08/30 02:47:37;;;;;;;;;3.67;3.00;;;;;23.30;95.73;100321.00;2122227;27;46315;-54
2023/08/30 02:48:38;;;;;;;;;3.33;3.33;;;;;23.38;95.36;100313.97;2122208;27;46351;-52
2023/08/30 02:49:38;;;;;;;;;4.00;4.00;;;;;23.39;95.46;100317.53;2122248;27;46129;-54
2023/08/30 02:50:38;;;;;;;;;2.67;2.67;;;;;23.33;95.15;100318.88;2122335;27;46273;-51
2023/08/30 02:51:39;;;;;;;;;2.00;2.00;;;;;23.42;95.24;100318.16;2122183;27;45429;-51
2023/08/30 02:52:39;;;;;;;;;4.00;4.00;;;;;23.44;95.21;100326.13;2122135;27;46411;-53
2023/08/30 02:53:39;;;;;;;;;3.00;3.00;;;;;23.44;95.11;100313.47;2121920;27;45814;-53
2023/08/30 02:54:40;;;;;;;;;4.67;4.67;;;;;23.44;95.03;100320.72;2122268;27;45835;-53
2023/08/30 02:55:40;;;;;;;;;6.00;6.00;;;;;23.44;95.21;100316.16;2122302;27;46435;-53
2023/08/30 02:56:45;;;;;;;;;3.00;3.00;;;;;23.46;95.16;100321.44;2121930;27;46762;-53
2023/08/30 02:57:46;;;;;;;;;4.50;4.50;;;;;23.47;94.99;100325.88;2122493;27;46614;-54
2023/08/30 02:58:46;;;;;;;;;3.00;2.25;;;;;23.47;94.93;100323.16;2122230;27;46545;-52
2023/08/30 02:59:46;;;;;;;;;3.00;3.00;;;;;23.47;94.71;100329.44;2120816;27;46834;-51
2023/08/30 03:00:47;;;;;;;;;3.00;2.00;;;;;23.47;95.27;100323.16;2118581;27;44984;-52
2023/08/30 03:01:47;;;;;;;;;3.00;3.00;;;;;23.47;94.81;100324.03;2121948;27;47003;-54
2023/08/30 03:02:48;;;;;;;;;5.00;4.67;;;;;23.48;94.67;100322.19;2122193;27;46492;-51
2023/08/30 03:03:48;;;;;;;;;3.00;3.00;;;;;23.48;95.15;100308.66;2121860;27;46060;-52
2023/08/30 03:04:49;;;;;;;;;4.00;4.00;;;;;23.48;94.85;100320.34;2119395;27;45886;-54
2023/08/30 03:05:49;;;;;;;;;5.67;5.00;;;;;23.47;94.86;100324.03;2119962;27;46694;-53
2023/08/30 03:06:49;;;;;;;;;2.67;2.67;;;;;23.45;94.87;100315.19;2121845;27;46163;-51
2023/08/30 03:07:51;;;;;;;;;3.33;3.33;;;;;23.45;94.71;100320.59;2122184;27;46184;-53
2023/08/30 03:08:53;;;;;;;;;14.75;13.50;;;;;23.46;94.81;100316.03;2126007;27;46470;-51
2023/08/30 03:09:54;;;;;;;;;15.00;15.00;;;;;23.46;94.84;100318.75;2121384;27;46886;-49
2023/08/30 03:10:54;;;;;;;;;12.33;11.33;;;;;23.44;94.68;100324.28;2122034;27;46074;-51
2023/08/30 03:11:54;;;;;;;;;7.00;6.00;;;;;23.42;95.02;100315.44;2119585;27;45790;-54
2023/08/30 03:12:55;;;;;;;;;5.00;4.33;;;;;23.44;94.84;100324.28;2121985;27;46135;-52
2023/08/30 03:13:55;;;;;;;;;4.00;4.00;;;;;23.43;94.74;100319.88;2121703;27;46174;-52
2023/08/30 03:14:55;;;;;;;;;3.00;3.00;;;;;23.45;94.80;100322.44;2122163;27;46213;-53
2023/08/30 03:15:56;;;;;;;;;2.67;2.67;;;;;23.45;94.96;100317.03;2121876;27;46264;-51
2023/08/30 03:16:56;;;;;;;;;5.00;3.00;;;;;23.45;94.78;100317.03;2121989;27;46064;-52
2023/08/30 03:17:56;;;;;;;;;3.00;3.00;;;;;23.44;95.17;100323.44;2120995;27;45561;-50
2023/08/30 03:18:57;;;;;;;;;3.00;3.00;;;;;23.44;94.66;100321.59;2122476;27;46318;-52
2023/08/30 03:19:58;;;;;;;;;2.33;2.33;;;;;23.43;94.43;100324.41;2121486;27;46428;-52
2023/08/30 03:21:02;;;;;;;;;4.00;3.00;;;;;23.44;94.75;100323.44;2121630;27;46481;-53
2023/08/30 03:22:02;;;;;;;;;3.75;3.00;;;;;23.43;94.90;100321.72;2112791;27;45847;-52
2023/08/30 03:23:03;;;;;;;;;3.00;3.00;;;;;23.43;94.80;100324.41;2113054;27;46212;-53
2023/08/30 03:24:04;;;;;;;;;3.00;3.00;;;;;23.43;94.73;100325.28;2122175;27;45634;-51
2023/08/30 03:25:05;;;;;;;;;1.67;1.67;;;;;23.43;94.84;100327.13;2121816;27;46286;-51
2023/08/30 03:26:10;;;;;;;;;2.50;2.50;;;;;23.44;94.72;100329.72;2122454;27;45666;-51
2023/08/30 03:27:10;;;;;;;;;3.50;2.50;;;;;23.44;95.00;100327.00;2130998;27;45762;-53
2023/08/30 03:28:11;;;;;;;;;1.33;1.33;;;;;23.44;94.98;100326.13;2121316;27;46204;-52
2023/08/30 03:29:11;;;;;;;;;2.00;2.00;;;;;23.44;95.29;100326.13;2125947;27;46616;-53
2023/08/30 03:30:12;;;;;;;;;2.00;2.00;;;;;23.44;95.35;100328.84;2122031;27;46349;-53
2023/08/30 03:31:19;;;;;;;;;2.00;2.00;;;;;23.43;95.46;100324.41;2121437;27;46274;-50
2023/08/30 03:32:20;;;;;;;;;2.50;2.25;;;;;23.41;95.55;100323.69;2122051;27;46671;-53
2023/08/30 03:33:20;;;;;;;;;2.00;2.00;;;;;23.42;95.84;100320.84;2121118;27;45979;-53
2023/08/30 03:34:20;;;;;;;;;1.33;1.33;;;;;23.40;95.80;100325.53;2119817;27;46738;-50
2023/08/30 03:35:21;;;;;;;;;2.33;2.33;;;;;23.40;95.93;100313.84;2121789;27;46587;-50
2023/08/30 03:36:21;;;;;;;;;3.00;3.00;;;;;23.41;96.13;100318.28;2121991;27;46461;-52
2023/08/30 03:37:22;;;;;;;;;3.67;3.00;;;;;23.40;96.15;100317.41;2122019;27;45735;-53
2023/08/30 03:38:22;;;;;;;;;1.67;1.67;;;;;23.39;96.08;100315.69;2122001;27;46285;-54
2023/08/30 03:39:24;;;;;;;;;2.67;2.33;;;;;23.39;96.37;100310.28;2121006;27;46710;-49
2023/08/30 03:40:24;;;;;;;;;3.25;2.00;;;;;23.39;96.70;100310.28;2116130;27;46247;-53
2023/08/30 03:41:24;;;;;;;;;3.00;3.00;;;;;23.39;96.90;100307.56;2120323;27;47082;-55
2023/08/30 03:42:25;;;;;;;;;3.00;3.00;;;;;23.38;96.96;100303.16;2121705;27;46328;-50
2023/08/30 03:43:25;;;;;;;;;2.33;2.33;;;;;23.38;97.26;100311.25;2124321;27;45486;-51
2023/08/30 03:44:25;;;;;;;;;3.33;2.33;;;;;23.38;97.44;100305.00;2116666;27;45940;-54
2023/08/30 03:45:26;;;;;;;;;2.67;2.00;;;;;23.38;97.67;100310.41;2116914;27;46602;-52
2023/08/30 03:46:26;;;;;;;;;2.33;2.33;;;;;23.35;97.94;100308.78;2121708;27;46303;-53
2023/08/30 03:47:27;;;;;;;;;2.33;2.33;;;;;23.35;98.19;100316.91;2121522;27;46188;-51
2023/08/30 03:48:27;;;;;;;;;3.00;3.00;;;;;23.33;98.30;100308.06;2112322;27;46309;-50
2023/08/30 03:49:27;;;;;;;;;2.33;2.00;;;;;23.32;98.29;100306.34;2112930;27;46439;-54
2023/08/30 03:50:28;;;;;;;;;3.00;3.00;;;;;23.32;98.70;100309.03;2111392;27;46445;-54
2023/08/30 03:51:28;;;;;;;;;0.33;0.33;;;;;23.31;98.75;100303.75;2112502;27;45448;-54
2023/08/30 03:52:28;;;;;;;;;3.00;2.00;;;;;23.32;98.99;100306.34;2117861;27;46500;-55
2023/08/30 03:53:30;;;;;;;;;2.00;2.00;;;;;23.33;99.14;100309.91;2117665;27;47831;-55
2023/08/30 03:54:31;;;;;;;;;3.00;2.00;;;;;23.32;99.58;100303.63;2121881;27;46980;-52
2023/08/30 03:55:33;;;;;;;;;2.50;2.50;;;;;23.31;99.24;100306.47;2121681;27;45269;-55
2023/08/30 03:56:34;;;;;;;;;1.00;1.00;;;;;23.32;99.40;100302.75;2121608;27;46676;-54
2023/08/30 03:57:34;;;;;;;;;4.00;3.00;;;;;23.31;99.50;100306.47;2121668;27;46372;-54
2023/08/30 03:58:34;;;;;;;;;6.00;3.00;;;;;23.32;99.32;100305.47;2121951;27;46397;-51
2023/08/30 03:59:35;;;;;;;;;3.33;3.33;;;;;23.30;99.82;100308.31;2121933;27;46223;-55
2023/08/30 04:00:39;;;;;;;;;3.00;3.00;;;;;23.32;99.98;100308.19;2121511;27;46566;-52
2023/08/30 04:01:39;;;;;;;;;3.75;3.50;;;;;23.29;100.00;100319.28;2121654;27;48014;-52
2023/08/30 04:02:39;;;;;;;;;3.33;3.33;;;;;23.29;100.00;100305.72;2122404;27;45580;-51
2023/08/30 04:03:40;;;;;;;;;2.67;2.67;;;;;23.26;100.00;100303.28;2121302;27;46338;-52
2023/08/30 04:04:40;;;;;;;;;1.67;1.67;;;;;23.25;100.00;100306.94;2121410;27;46768;-51
2023/08/30 04:05:41;;;;;;;;;3.00;2.67;;;;;23.26;100.00;100306.84;2121399;27;46560;-54
2023/08/30 04:06:41;;;;;;;;;3.75;3.75;;;;;23.26;100.00;100308.69;2120503;27;46736;-60
2023/08/30 04:07:42;;;;;;;;;4.33;3.67;;;;;23.24;100.00;100306.09;2121303;27;46798;-53
2023/08/30 04:08:42;;;;;;;;;1.67;1.67;;;;;23.24;100.00;100294.41;2121899;27;46762;-50
2023/08/30 04:09:42;;;;;;;;;4.67;4.67;;;;;23.24;100.00;100303.38;2123426;27;46472;-51
2023/08/30 04:10:47;;;;;;;;;2.33;2.33;;;;;23.23;100.00;100301.66;2122694;27;45890;-51
2023/08/30 04:11:47;;;;;;;;;2.50;2.50;;;;;23.24;100.00;100302.50;2121787;27;46769;-54
2023/08/30 04:12:47;;;;;;;;;0.00;0.00;;;;;23.23;100.00;100293.53;2112415;27;46200;-53
2023/08/30 04:13:48;;;;;;;;;2.00;2.00;;;;;23.24;100.00;100299.81;2112683;27;46221;-53
2023/08/30 04:14:48;;;;;;;;;4.00;4.00;;;;;23.24;100.00;100299.81;2121722;27;46777;-52
2023/08/30 04:15:49;;;;;;;;;2.00;2.00;;;;;23.24;100.00;100302.50;2122006;27;46099;-55
2023/08/30 04:16:49;;;;;;;;;3.00;3.00;;;;;23.23;100.00;100306.22;2121359;27;46098;-54
2023/08/30 04:17:49;;;;;;;;;4.00;2.67;;;;;23.22;100.00;100307.19;2121426;27;46679;-52
2023/08/30 04:18:50;;;;;;;;;4.00;4.00;;;;;23.20;100.00;100293.78;2121511;27;46532;-54
2023/08/30 04:19:53;;;;;;;;;1.67;1.67;;;;;23.21;100.00;100306.34;2121372;27;46456;-52
2023/08/30 04:20:54;;;;;;;;;2.00;2.00;;;;;23.18;100.00;100296.63;2121977;27;46318;-51
2023/08/30 04:21:54;;;;;;;;;3.00;2.00;;;;;23.15;100.00;100299.59;2122336;27;46401;-52
2023/08/30 04:22:56;;;;;;;;;3.67;3.67;;;;;23.06;100.00;100294.91;2111586;27;47071;-51
2023/08/30 04:23:56;;;;;;;;;3.75;3.75;;;;;23.10;100.00;100295.50;2112302;27;46408;-50
2023/08/30 04:24:57;;;;;;;;;3.00;2.00;;;;;23.09;100.00;100300.06;2121738;27;46008;-50
2023/08/30 04:25:57;;;;;;;;;3.67;3.67;;;;;23.09;100.00;100288.38;2112470;27;46401;-54
2023/08/30 04:26:57;;;;;;;;;3.00;3.00;;;;;23.09;100.00;100293.78;2103642;28;46788;-54
2023/08/30 04:27:58;;;;;;;;;3.00;3.00;;;;;23.10;100.00;100295.50;2112602;27;46326;-52
2023/08/30 04:28:58;;;;;;;;;2.00;2.00;;;;;23.09;100.00;100283.81;2124925;27;46970;-53
2023/08/30 04:29:58;;;;;;;;;2.00;2.00;;;;;23.11;100.00;100289.97;2121556;27;46593;-49
2023/08/30 04:30:59;;;;;;;;;4.33;2.67;;;;;23.12;100.00;100290.84;2121161;27;46220;-52
2023/08/30 04:31:59;;;;;;;;;2.67;2.67;;;;;23.13;100.00;100293.44;2121746;27;45013;-53
2023/08/30 04:33:02;;;;;;;;;3.67;3.00;;;;;23.13;100.00;100288.03;2122315;27;46899;-51
2023/08/30 04:34:03;;;;;;;;;1.50;1.50;;;;;23.15;100.00;100282.47;2122352;27;46351;-53
2023/08/30 04:35:03;;;;;;;;;3.00;3.00;;;;;23.13;100.00;100285.31;2122995;27;46468;-53
2023/08/30 04:36:04;;;;;;;;;3.00;3.00;;;;;23.15;100.00;100282.47;2120257;27;46310;-51
2023/08/30 04:37:04;;;;;;;;;3.33;3.33;;;;;23.16;100.00;100286.91;2118758;27;46441;-54
2023/08/30 04:38:05;;;;;;;;;2.67;2.67;;;;;23.16;100.00;100276.94;2123427;27;46463;-53
2023/08/30 04:39:06;;;;;;;;;2.67;2.67;;;;;23.17;100.00;100280.50;2112618;27;45535;-51
2023/08/30 04:40:08;;;;;;;;;4.00;4.00;;;;;23.16;100.00;100279.66;2114097;27;46343;-49
2023/08/30 04:41:09;;;;;;;;;5.25;3.00;;;;;23.14;100.00;100273.50;2122948;27;45331;-54
2023/08/30 04:42:09;;;;;;;;;3.33;3.33;;;;;23.13;100.00;100279.91;2123707;27;46347;-51
2023/08/30 04:43:09;;;;;;;;;4.00;3.00;;;;;23.11;100.00;100279.16;2122876;27;46720;-50
2023/08/30 04:44:10;;;;;;;;;4.33;3.67;;;;;23.18;100.00;100268.69;2126469;27;46221;-50
2023/08/30 04:45:10;;;;;;;;;2.00;2.00;;;;;23.18;100.00;100276.81;2113539;27;46341;-50